Time;durP1;ratioP1;P1;durP2;ratioP2;P2;SDS_P1;SDS_P2;PMS_P1;PMS_P2;Temp;Humidity;BMP_temperature;BMP_pressure;BME280_temperature;BME280_humidity;BME280_pressure;Samples;Min_cycle;Max_cycle;Signal;HPM_P1;HPM_P2
2021/08/06 13:40:28;;;;;;;1.90;1.75;;;22.30;99.90;;;22.21;58.75;97117.31;5279054;27;20616;-60
2021/08/06 13:43:02;;;;;;;2.10;2.00;;;22.40;99.90;;;22.53;59.76;97111.19;5262455;28;20207;-56
2021/08/06 13:45:35;;;;;;;2.28;1.88;;;22.40;99.90;;;22.71;59.38;97116.34;5261289;28;20200;-61
2021/08/06 13:48:08;;;;;;;2.10;1.90;;;22.40;99.90;;;22.92;59.06;97116.28;5253875;28;20221;-61
2021/08/06 13:50:41;;;;;;;1.50;1.42;;;22.60;99.90;;;23.11;54.74;97108.41;5239952;28;20212;-57
2021/08/06 13:53:28;;;;;;;3.17;1.77;;;22.60;99.90;;;23.18;54.81;97107.53;5236558;28;20203;-62
2021/08/06 13:56:03;;;;;;;1.92;1.83;;;22.60;99.90;;;23.19;55.56;97106.63;5237810;28;20196;-59
2021/08/06 13:58:36;;;;;;;1.80;1.70;;;22.60;99.90;;;23.44;55.25;97102.16;5239511;28;20621;-58
2021/08/06 14:01:09;;;;;;;1.70;1.58;;;22.80;99.90;;;23.67;53.37;97106.38;5243120;28;20196;-59
2021/08/06 14:03:42;;;;;;;1.90;1.70;;;23.00;99.90;;;23.75;53.59;97108.06;5243174;28;20200;-59
2021/08/06 14:06:16;;;;;;;2.13;1.70;;;23.10;99.90;;;23.86;53.23;97109.72;5239249;28;20682;-59
2021/08/06 14:08:49;;;;;;;2.05;1.85;;;23.10;99.90;;;23.82;52.25;97114.09;5240316;28;20594;-60
2021/08/06 14:11:23;;;;;;;3.20;1.90;;;23.10;99.90;;;23.91;52.49;97118.38;5243042;28;20296;-60
2021/08/06 14:13:56;;;;;;;2.45;1.90;;;23.10;99.90;;;23.98;51.85;97110.50;5238450;28;20287;-59
2021/08/06 14:16:30;;;;;;;1.85;1.50;;;23.20;99.90;;;24.04;52.64;97114.81;5240896;28;20207;-59
2021/08/06 14:19:03;;;;;;;1.75;1.65;;;23.30;99.90;;;24.00;51.67;97120.91;5239753;28;20224;-60
2021/08/06 14:21:36;;;;;;;1.98;1.77;;;23.20;99.90;;;23.92;49.94;97112.28;5241190;28;20196;-57
2021/08/06 14:24:10;;;;;;;1.95;1.65;;;23.10;98.80;;;23.85;50.09;97123.66;5242938;28;20196;-58
2021/08/06 14:26:46;;;;;;;2.17;1.80;;;23.00;99.10;;;23.80;50.06;97116.72;5240108;28;20218;-60
2021/08/06 14:29:22;;;;;;;2.08;1.50;;;22.90;99.10;;;23.69;51.48;97112.41;5241198;28;20219;-59
2021/08/06 14:31:55;;;;;;;1.98;1.55;;;22.80;99.90;;;23.57;52.11;97113.38;5243189;28;20294;-58
2021/08/06 14:34:28;;;;;;;2.10;1.60;;;22.70;99.90;;;23.60;52.83;97114.22;5241371;28;20196;-56
2021/08/06 14:37:01;;;;;;;2.05;1.67;;;22.70;99.90;;;23.64;53.46;97114.22;5241505;28;20291;-58
2021/08/06 14:39:37;;;;;;;2.58;2.00;;;22.70;99.90;;;23.70;53.57;97109.84;5242336;28;20220;-57
2021/08/06 14:42:12;;;;;;;2.08;1.80;;;22.70;99.90;;;23.80;52.95;97121.06;5241049;28;20204;-57
2021/08/06 14:44:48;;;;;;;1.55;1.45;;;22.80;99.90;;;23.81;52.82;97123.69;5233309;28;20705;-58
2021/08/06 14:47:21;;;;;;;1.92;1.67;;;22.80;99.90;;;23.82;51.48;97120.19;5221696;28;20255;-55
2021/08/06 14:49:54;;;;;;;2.38;1.50;;;22.70;99.90;;;23.64;51.62;97125.50;5234193;28;20223;-60
2021/08/06 14:52:27;;;;;;;2.03;1.70;;;22.60;99.90;;;23.59;52.43;97127.28;5228488;28;20197;-58
2021/08/06 14:55:00;;;;;;;2.05;1.70;;;22.60;99.90;;;23.41;52.82;97117.84;5228677;28;20288;-60
2021/08/06 14:57:35;;;;;;;1.80;1.70;;;22.40;99.90;;;23.29;53.70;97118.78;5225040;28;20203;-59
2021/08/06 15:00:09;;;;;;;1.92;1.63;;;22.30;99.90;;;23.35;53.81;97123.94;5228321;28;20220;-60
2021/08/06 15:02:42;;;;;;;2.05;1.75;;;22.30;99.90;;;23.35;53.35;97121.34;5226908;28;20203;-59
2021/08/06 15:05:16;;;;;;;1.90;1.52;;;22.40;99.90;;;23.41;53.26;97122.16;5227885;28;20209;-60
2021/08/06 15:07:50;;;;;;;2.03;1.88;;;22.40;99.90;;;23.34;53.95;97119.59;5226228;28;20227;-58
2021/08/06 15:10:24;;;;;;;2.47;1.80;;;22.40;99.90;;;23.38;54.20;97126.53;5225995;28;20306;-59
2021/08/06 15:13:00;;;;;;;1.85;1.63;;;22.50;99.90;;;23.56;53.99;97127.31;5225057;28;20292;-60
2021/08/06 15:15:51;;;;;;;2.00;1.70;;;22.60;99.90;;;23.63;53.18;97123.75;5210723;28;20649;-59
2021/08/06 15:18:25;;;;;;;1.67;1.58;;;22.70;99.90;;;23.72;53.17;97128.97;5223494;28;20219;-59
2021/08/06 15:20:58;;;;;;;2.40;1.65;;;22.70;99.90;;;23.77;53.41;97131.53;5225855;28;20601;-59
2021/08/06 15:23:31;;;;;;;1.85;1.75;;;22.70;99.90;;;23.72;53.95;97128.09;5225083;28;20207;-58
2021/08/06 15:26:04;;;;;;;1.70;1.60;;;22.70;99.90;;;23.74;53.73;97131.56;5224371;28;20580;-59
2021/08/06 15:28:38;;;;;;;1.67;1.52;;;22.70;99.90;;;23.77;54.44;97131.53;5224460;28;20225;-57
2021/08/06 15:31:11;;;;;;;2.75;1.70;;;22.70;99.90;;;23.72;54.60;97128.97;5226900;28;20219;-58
2021/08/06 15:33:44;;;;;;;2.45;1.75;;;22.60;99.90;;;23.75;53.45;97125.44;5226074;28;20577;-60
2021/08/06 15:36:18;;;;;;;2.05;1.70;;;22.60;99.90;;;23.64;53.68;97125.50;5226243;28;20331;-59
2021/08/06 15:38:52;;;;;;;2.08;1.80;;;22.70;99.90;;;23.63;54.72;97133.34;5225543;28;20231;-59
2021/08/06 15:41:25;;;;;;;1.92;1.83;;;22.70;99.90;;;23.64;54.76;97135.94;5225440;28;20311;-59
2021/08/06 15:44:00;;;;;;;2.08;1.65;;;22.70;99.90;;;23.59;55.68;97137.72;5227591;28;20229;-57
2021/08/06 15:46:34;;;;;;;1.77;1.55;;;22.70;99.90;;;23.50;56.37;97135.16;5227679;28;20193;-60
2021/08/06 15:49:07;;;;;;;1.98;1.73;;;22.70;99.90;;;23.50;56.19;97148.22;5213148;28;20249;-57
2021/08/06 15:51:41;;;;;;;1.75;1.58;;;22.60;99.90;;;23.57;54.29;97144.69;5211113;28;20264;-59
2021/08/06 15:54:14;;;;;;;1.52;1.42;;;22.60;99.90;;;23.61;53.88;97138.59;5229583;28;20207;-59
2021/08/06 15:56:47;;;;;;;2.22;1.85;;;22.70;99.90;;;23.68;53.97;97137.66;5227327;28;20584;-59
2021/08/06 15:59:21;;;;;;;2.35;1.90;;;22.70;99.90;;;23.83;53.21;97129.75;5224961;28;20284;-60
2021/08/06 16:01:54;;;;;;;2.45;1.70;;;22.90;99.90;;;23.94;51.96;97137.50;5223578;28;20215;-62
2021/08/06 16:04:28;;;;;;;1.67;1.58;;;23.10;99.90;;;23.98;52.51;97141.84;5227277;28;20285;-58
2021/08/06 16:07:01;;;;;;;1.55;1.45;;;23.10;99.90;;;23.90;51.70;97145.38;5225614;28;20203;-59
2021/08/06 16:09:34;;;;;;;1.48;1.30;;;23.00;99.90;;;23.76;51.93;97148.94;5223805;28;20303;-56
2021/08/06 16:12:08;;;;;;;2.53;1.70;;;22.80;99.90;;;23.58;53.06;97152.50;5223313;28;20262;-59
2021/08/06 16:14:43;;;;;;;1.65;1.52;;;22.60;99.90;;;23.47;54.17;97145.63;5225058;28;20209;-57
2021/08/06 16:17:16;;;;;;;1.75;1.65;;;22.50;99.90;;;23.33;54.79;97136.13;5221591;28;20204;-59
2021/08/06 16:19:49;;;;;;;2.00;1.80;;;22.40;99.90;;;23.33;54.28;97130.91;5218238;28;20684;-59
2021/08/06 16:22:22;;;;;;;1.98;1.88;;;22.40;99.90;;;23.31;55.02;97135.25;5205067;28;20205;-57
2021/08/06 16:24:55;;;;;;;2.83;2.47;;;22.40;99.90;;;23.25;55.57;97135.28;5213131;28;20529;-59
2021/08/06 16:27:31;;;;;;;2.03;1.83;;;22.30;99.90;;;23.14;55.64;97139.69;5207856;28;20228;-59
2021/08/06 16:30:07;;;;;;;2.10;2.00;;;22.20;99.90;;;23.10;56.31;97137.97;5225166;28;20603;-60
2021/08/06 16:32:40;;;;;;;2.00;1.90;;;22.20;99.90;;;23.06;56.80;97134.50;5225433;28;20292;-58
2021/08/06 16:35:13;;;;;;;1.90;1.80;;;22.20;99.90;;;23.05;56.81;97142.34;5224813;28;20292;-58
2021/08/06 16:37:46;;;;;;;1.67;1.58;;;22.10;99.90;;;23.00;57.11;97144.09;5224164;28;20299;-60
2021/08/06 16:40:19;;;;;;;1.90;1.55;;;22.00;99.90;;;22.94;57.52;97143.19;5219139;28;20221;-59
2021/08/06 16:42:52;;;;;;;1.98;1.88;;;22.00;99.90;;;22.85;58.30;97147.59;5217053;28;20201;-59
2021/08/06 16:45:27;;;;;;;1.95;1.63;;;21.90;99.90;;;22.84;59.34;97141.50;5223961;28;20296;-61
2021/08/06 16:48:00;;;;;;;1.80;1.65;;;21.90;99.90;;;22.76;59.71;97137.19;5217720;28;20220;-57
2021/08/06 16:50:35;;;;;;;1.67;1.58;;;21.80;99.90;;;22.73;59.56;97143.28;5221505;28;20285;-60
2021/08/06 16:53:08;;;;;;;1.70;1.60;;;21.80;99.90;;;22.75;59.30;97143.25;5220076;28;20205;-59
2021/08/06 16:55:41;;;;;;;1.60;1.50;;;21.70;99.90;;;22.72;59.07;97131.13;5209825;28;20205;-60
2021/08/06 16:58:17;;;;;;;2.53;1.70;;;21.70;99.90;;;22.68;59.77;97139.81;5212738;28;20615;-60
2021/08/06 17:00:52;;;;;;;2.70;1.70;;;21.70;99.90;;;22.68;59.10;97137.19;5212281;28;20319;-58
2021/08/06 17:03:25;;;;;;;1.70;1.60;;;21.60;99.90;;;22.63;59.83;97141.53;5211451;28;20201;-59
2021/08/06 17:05:58;;;;;;;1.80;1.70;;;21.60;99.90;;;22.62;60.92;97140.69;5214558;28;20232;-60
2021/08/06 17:08:31;;;;;;;3.17;1.77;;;21.50;99.90;;;22.58;61.43;97132.91;5215228;28;20236;-60
2021/08/06 17:11:04;;;;;;;2.25;2.00;;;21.50;99.90;;;22.51;62.37;97125.94;5212418;28;20201;-56
2021/08/06 17:13:37;;;;;;;2.20;1.60;;;21.50;99.90;;;22.43;62.68;97133.78;5204616;28;20510;-59
2021/08/06 17:16:12;;;;;;;2.45;2.05;;;21.50;99.90;;;22.39;62.64;97122.50;5214957;28;20200;-60
2021/08/06 17:18:45;;;;;;;2.42;1.80;;;21.40;99.90;;;22.40;63.21;97131.19;5216318;28;20234;-59
2021/08/06 17:21:19;;;;;;;1.88;1.75;;;21.40;99.90;;;22.37;63.55;97134.66;5218972;28;20585;-60
2021/08/06 17:23:52;;;;;;;2.50;1.90;;;21.40;99.90;;;22.32;64.29;97130.31;5217355;28;20197;-60
2021/08/06 17:26:24;;;;;;;1.80;1.70;;;21.30;99.90;;;22.25;64.26;97140.75;5219331;28;20252;-59
2021/08/06 17:28:57;;;;;;;1.77;1.67;;;21.30;99.90;;;22.21;64.78;97132.94;5217349;28;20582;-59
2021/08/06 17:31:33;;;;;;;2.45;1.73;;;21.30;99.90;;;22.19;64.81;97135.53;5221844;28;20280;-57
2021/08/06 17:34:06;;;;;;;2.58;1.73;;;21.20;99.90;;;22.15;65.42;97131.19;5223260;28;20362;-60
2021/08/06 17:36:39;;;;;;;2.00;1.80;;;21.20;99.90;;;22.14;65.45;97136.38;5222381;28;20498;-60
2021/08/06 17:39:12;;;;;;;2.10;1.90;;;21.20;99.90;;;22.11;65.67;97136.38;5218693;28;20602;-58
2021/08/06 17:41:45;;;;;;;2.35;1.80;;;21.10;99.90;;;22.04;65.83;97125.09;5217086;28;20685;-57
2021/08/06 17:44:18;;;;;;;1.95;1.73;;;21.10;99.90;;;22.00;65.43;97129.41;5223077;28;20295;-60
2021/08/06 17:46:52;;;;;;;1.77;1.63;;;21.10;99.90;;;21.95;65.41;97133.78;5221347;28;20202;-60
2021/08/06 17:49:26;;;;;;;1.85;1.75;;;21.00;99.90;;;21.90;65.79;97138.13;5221430;28;20238;-58
2021/08/06 17:51:59;;;;;;;2.85;1.80;;;20.90;99.90;;;21.88;66.95;97136.38;5217826;28;20197;-59
2021/08/06 17:54:32;;;;;;;2.30;2.10;;;20.90;99.90;;;21.82;67.96;97135.50;5222374;28;20228;-59
2021/08/06 17:57:05;;;;;;;2.67;2.45;;;20.90;99.90;;;21.80;68.46;97131.16;5219109;28;20211;-60
2021/08/06 17:59:38;;;;;;;3.40;2.30;;;20.80;99.90;;;21.70;68.84;97134.63;5222787;28;20221;-59
2021/08/06 18:02:13;;;;;;;3.63;2.30;;;20.70;99.90;;;21.64;69.00;97135.47;5223047;28;20342;-57
2021/08/06 18:04:46;;;;;;;3.03;2.10;;;20.70;99.90;;;21.61;69.06;97139.81;5221515;28;20197;-60
2021/08/06 18:07:19;;;;;;;3.30;2.30;;;20.60;99.90;;;21.62;69.02;97141.53;5222661;28;20203;-59
2021/08/06 18:09:52;;;;;;;3.70;2.20;;;20.60;99.90;;;21.55;69.44;97141.53;5220820;28;20497;-56
2021/08/06 18:12:25;;;;;;;2.60;2.40;;;20.50;99.90;;;21.50;69.17;97150.19;5221063;28;20591;-60
2021/08/06 18:14:58;;;;;;;3.75;2.60;;;20.50;99.90;;;21.40;69.98;97149.28;5223476;28;20647;-61
2021/08/06 18:17:37;;;;;;;2.88;2.10;;;20.40;99.90;;;21.34;70.37;97157.03;5222258;28;20939;-59
2021/08/06 18:20:12;;;;;;;3.05;2.05;;;20.30;99.90;;;21.32;71.01;97156.19;5220076;28;21051;-58
2021/08/06 18:22:46;;;;;;;2.67;2.30;;;20.30;99.90;;;21.26;71.24;97153.53;5222628;28;20251;-60
2021/08/06 18:25:21;;;;;;;2.50;2.30;;;20.20;99.90;;;21.13;71.71;97153.50;5220583;28;21322;-60
2021/08/06 18:27:54;;;;;;;2.50;2.30;;;20.20;99.90;;;21.08;72.22;97150.00;5223265;28;20299;-57
2021/08/06 18:30:28;;;;;;;2.90;2.60;;;20.10;99.90;;;21.06;72.66;97156.06;5218134;28;20201;-60
2021/08/06 18:33:02;;;;;;;2.50;2.28;;;20.00;99.90;;;20.97;73.83;97162.09;5225546;28;20224;-58
2021/08/06 18:35:35;;;;;;;2.15;2.05;;;20.00;99.90;;;20.93;73.72;97149.94;5227648;28;20696;-61
2021/08/06 18:38:08;;;;;;;3.50;2.30;;;19.90;99.90;;;20.90;74.09;97160.34;5218288;28;20594;-59
2021/08/06 18:40:41;;;;;;;3.45;2.40;;;19.90;99.90;;;20.83;73.64;97158.53;5211438;28;20292;-59
2021/08/06 18:43:15;;;;;;;2.58;2.30;;;19.70;99.90;;;20.70;74.51;97153.28;5220161;28;20203;-57
2021/08/06 18:45:48;;;;;;;2.70;2.35;;;19.60;99.90;;;20.63;75.45;97151.53;5219252;28;20221;-58
2021/08/06 18:48:23;;;;;;;2.65;2.45;;;19.60;99.90;;;20.57;75.83;97155.81;5223962;28;20221;-59
2021/08/06 18:50:56;;;;;;;3.85;2.75;;;19.50;99.90;;;20.53;76.10;97147.13;5224827;28;20908;-57
2021/08/06 18:53:29;;;;;;;2.85;2.65;;;19.50;99.90;;;20.44;76.55;97155.69;5231772;28;20211;-55
2021/08/06 18:56:02;;;;;;;2.60;2.40;;;19.40;99.90;;;20.29;77.42;97165.09;5224226;28;20198;-59
2021/08/06 18:58:36;;;;;;;2.88;2.60;;;19.30;99.90;;;20.25;77.68;97165.06;5217650;28;20217;-60
2021/08/06 19:01:09;;;;;;;2.83;2.63;;;19.20;99.90;;;20.15;78.42;97162.41;5219395;28;20224;-56
2021/08/06 19:03:44;;;;;;;3.97;3.33;;;19.10;99.90;;;20.07;79.15;97164.94;5219549;28;20201;-59
2021/08/06 19:06:17;;;;;;;3.90;3.60;;;19.00;99.90;;;19.97;79.44;97170.88;5216362;28;20211;-59
2021/08/06 19:08:50;;;;;;;4.20;3.80;;;19.00;99.90;;;19.94;79.78;97178.66;5220649;28;20224;-57
2021/08/06 19:11:23;;;;;;;3.72;3.33;;;18.90;99.90;;;19.83;79.75;97170.78;5220968;28;20679;-56
2021/08/06 19:14:00;;;;;;;3.25;2.95;;;18.80;99.90;;;19.75;80.32;97177.63;5220026;28;20205;-59
2021/08/06 19:16:33;;;;;;;2.90;2.63;;;18.70;99.90;;;19.63;80.60;97175.75;5219897;28;20212;-60
2021/08/06 19:19:08;;;;;;;2.67;2.47;;;18.60;99.90;;;19.59;81.13;97185.19;5219124;28;20589;-58
2021/08/06 19:21:42;;;;;;;2.47;2.28;;;18.60;99.90;;;19.44;81.38;97192.81;5222133;28;20216;-58
2021/08/06 19:24:15;;;;;;;2.30;2.20;;;18.50;99.90;;;19.32;81.37;97196.13;5222596;28;20205;-57
2021/08/06 19:26:49;;;;;;;3.10;2.53;;;18.40;99.90;;;19.35;81.79;97197.91;5217233;28;20295;-56
2021/08/06 19:29:24;;;;;;;2.40;2.20;;;18.40;99.90;;;19.30;81.89;97200.41;5221468;28;20319;-57
2021/08/06 19:31:57;;;;;;;2.53;2.33;;;18.30;99.90;;;19.23;82.39;97195.13;5220661;28;20196;-59
2021/08/06 19:34:32;;;;;;;3.45;2.35;;;18.30;99.90;;;19.23;82.06;97197.72;5220598;28;20212;-57
2021/08/06 19:37:08;;;;;;;2.42;2.22;;;18.20;99.90;;;19.19;82.27;97196.81;5218512;28;20197;-57
2021/08/06 19:39:42;;;;;;;2.47;2.25;;;18.20;99.90;;;19.10;82.62;97188.94;5220668;28;20271;-59
2021/08/06 19:42:15;;;;;;;2.88;2.20;;;18.10;99.90;;;19.05;82.30;97203.56;5217141;28;20272;-62
2021/08/06 19:44:48;;;;;;;2.30;2.20;;;18.10;99.90;;;19.00;82.02;97205.19;5222077;28;20283;-61
2021/08/06 19:47:21;;;;;;;4.65;2.80;;;18.00;99.90;;;18.96;82.31;97206.03;5219117;28;20315;-58
2021/08/06 19:49:57;;;;;;;3.30;2.03;;;17.90;99.90;;;18.83;82.04;97213.63;5218818;28;20194;-61
2021/08/06 19:52:30;;;;;;;2.50;2.30;;;17.80;99.90;;;18.68;82.20;97211.66;5219457;28;20568;-61
2021/08/06 19:55:04;;;;;;;2.47;1.83;;;17.70;99.90;;;18.62;82.72;97218.44;5218948;28;20245;-61
2021/08/06 19:57:39;;;;;;;2.92;2.42;;;17.60;99.90;;;18.60;83.84;97220.13;5221437;28;20213;-59
2021/08/06 20:00:15;;;;;;;3.65;2.40;;;17.60;99.90;;;18.55;83.46;97221.81;5219193;28;20231;-59
2021/08/06 20:02:48;;;;;;;2.60;2.40;;;17.60;99.90;;;18.51;83.78;97214.81;5219304;28;20220;-58
2021/08/06 20:05:22;;;;;;;2.72;2.53;;;17.60;99.90;;;18.50;83.67;97218.28;5218493;28;20239;-62
2021/08/06 20:07:57;;;;;;;2.45;2.25;;;17.50;99.90;;;18.47;83.84;97213.91;5217198;28;20774;-61
2021/08/06 20:10:33;;;;;;;4.15;2.40;;;17.50;99.90;;;18.41;83.51;97219.88;5218437;28;20679;-61
2021/08/06 20:13:08;;;;;;;3.50;2.67;;;17.40;99.90;;;18.37;84.08;97233.63;5217705;28;20198;-60
2021/08/06 20:15:41;;;;;;;2.70;2.50;;;17.30;99.90;;;18.31;84.28;97225.72;5216872;28;20683;-55
2021/08/06 20:18:15;;;;;;;3.40;2.60;;;17.30;99.90;;;18.27;84.06;97231.72;5216201;28;20236;-55
2021/08/06 20:20:49;;;;;;;2.55;2.35;;;17.20;99.90;;;18.20;84.75;97225.56;5221534;28;20201;-60
2021/08/06 20:23:22;;;;;;;2.60;2.40;;;17.20;99.90;;;18.15;84.26;97227.19;5223421;28;20220;-60
2021/08/06 20:25:55;;;;;;;2.67;2.30;;;17.20;99.90;;;17.97;85.17;97216.53;5219455;28;20207;-57
2021/08/06 20:28:43;;;;;;;2.60;2.40;;;17.10;99.90;;;17.95;85.47;97224.28;5217694;28;20221;-58
2021/08/06 20:31:16;;;;;;;2.55;2.30;;;17.10;99.90;;;17.92;86.18;97219.03;5218812;28;20300;-58
2021/08/06 20:33:50;;;;;;;2.67;2.17;;;17.00;99.90;;;17.91;85.23;97222.50;5217988;28;20300;-59
2021/08/06 20:36:24;;;;;;;2.40;2.20;;;17.00;99.90;;;17.87;85.40;97222.41;5219509;28;20573;-58
2021/08/06 20:38:57;;;;;;;3.17;2.40;;;16.90;99.90;;;17.81;85.88;97235.22;5219790;28;20652;-60
2021/08/06 20:41:30;;;;;;;3.67;2.30;;;16.90;99.90;;;17.81;85.59;97236.06;5224594;28;20292;-59
2021/08/06 20:44:04;;;;;;;4.13;2.60;;;16.90;99.90;;;17.75;84.50;97230.78;5222016;28;20221;-59
2021/08/06 20:46:37;;;;;;;2.67;2.47;;;16.80;99.90;;;17.66;85.34;97228.00;5225074;28;20201;-60
2021/08/06 20:49:10;;;;;;;3.15;2.25;;;16.80;99.90;;;17.65;86.03;97234.00;5220736;28;20221;-58
2021/08/06 20:51:45;;;;;;;2.75;2.50;;;16.70;99.90;;;17.65;85.87;97239.19;5220647;28;20299;-58
2021/08/06 20:54:18;;;;;;;2.80;2.53;;;16.70;99.90;;;17.59;86.82;97239.06;5220499;28;20570;-61
2021/08/06 20:56:51;;;;;;;2.65;2.42;;;16.70;99.90;;;17.57;86.74;97241.63;5217137;28;20624;-59
2021/08/06 20:59:24;;;;;;;3.78;2.35;;;16.60;99.90;;;17.48;86.89;97237.16;5220126;28;20221;-59
2021/08/06 21:01:57;;;;;;;2.60;2.33;;;16.50;99.90;;;17.40;87.69;97237.81;5220143;28;20201;-59
2021/08/06 21:04:31;;;;;;;2.70;2.50;;;16.50;99.90;;;17.37;87.66;97237.75;5218871;28;20243;-60
2021/08/06 21:07:05;;;;;;;2.78;2.58;;;16.40;99.90;;;17.32;88.83;97238.53;5216612;28;20201;-57
2021/08/06 21:09:38;;;;;;;3.20;2.40;;;16.40;99.90;;;17.30;87.29;97237.63;5221067;28;20787;-58
2021/08/06 21:12:11;;;;;;;3.40;2.40;;;16.40;99.90;;;17.28;86.69;97247.09;5217269;28;20600;-60
2021/08/06 21:14:44;;;;;;;2.58;2.38;;;16.30;99.90;;;17.24;86.57;97237.50;5218074;28;20204;-59
2021/08/06 21:17:18;;;;;;;3.15;2.40;;;16.30;99.90;;;17.15;86.94;97234.75;5217536;28;20208;-58
2021/08/06 21:19:51;;;;;;;2.53;2.20;;;16.20;99.90;;;17.09;86.29;97242.38;5218286;28;20216;-58
2021/08/06 21:22:25;;;;;;;2.60;2.40;;;16.20;99.90;;;17.09;85.95;97238.06;5217103;28;20615;-57
2021/08/06 21:24:58;;;;;;;3.30;2.38;;;16.10;99.90;;;17.01;86.26;97249.94;5217304;28;20192;-57
2021/08/06 21:27:31;;;;;;;2.90;2.40;;;16.10;99.90;;;16.93;87.23;97246.31;5218582;28;20205;-57
2021/08/06 21:30:06;;;;;;;2.97;2.78;;;16.00;99.90;;;16.91;87.49;97240.22;5217735;28;20193;-60
2021/08/06 21:32:40;;;;;;;3.28;2.72;;;16.10;99.90;;;16.91;88.37;97245.41;5217870;28;20553;-58
2021/08/06 21:35:13;;;;;;;3.00;2.70;;;16.00;99.90;;;16.88;88.44;97242.75;5221081;28;20197;-58
2021/08/06 21:37:48;;;;;;;3.35;2.50;;;16.00;99.90;;;16.85;88.13;97241.00;5224034;28;20227;-58
2021/08/06 21:40:22;;;;;;;4.05;2.40;;;16.00;99.90;;;16.81;88.63;97231.41;5223882;28;20209;-58
2021/08/06 21:42:55;;;;;;;2.78;2.47;;;15.90;99.90;;;16.77;89.00;97231.31;5225449;28;20217;-56
2021/08/06 21:45:28;;;;;;;3.88;2.78;;;15.90;99.90;;;16.73;88.73;97227.75;5223054;28;20212;-58
2021/08/06 21:48:01;;;;;;;2.42;2.30;;;15.80;99.90;;;16.76;88.77;97226.97;5222497;28;20220;-58
2021/08/06 21:50:34;;;;;;;3.17;2.40;;;15.80;99.90;;;16.70;88.40;97234.56;5224770;28;20197;-58
2021/08/06 21:53:09;;;;;;;2.72;2.38;;;15.80;99.90;;;16.64;88.41;97227.56;5225595;28;20568;-58
2021/08/06 21:55:42;;;;;;;2.88;2.42;;;15.80;99.90;;;16.57;88.57;97230.84;5225560;28;20215;-54
2021/08/06 21:58:15;;;;;;;3.13;2.30;;;15.70;99.90;;;16.53;88.11;97240.19;5225145;28;20220;-56
2021/08/06 22:00:48;;;;;;;3.03;2.47;;;15.70;99.90;;;16.51;88.43;97231.56;5222352;28;20208;-57
2021/08/06 22:03:21;;;;;;;3.20;2.60;;;15.70;99.90;;;16.47;88.25;97234.91;5226209;28;20621;-57
2021/08/06 22:05:54;;;;;;;2.60;2.40;;;15.60;99.90;;;16.44;87.83;97227.09;5227808;28;20799;-60
2021/08/06 22:08:29;;;;;;;4.43;2.40;;;15.60;99.90;;;16.43;87.78;97235.69;5213498;28;20223;-56
2021/08/06 22:11:02;;;;;;;2.92;2.72;;;15.60;99.90;;;16.47;88.27;97240.06;5228889;28;20204;-54
2021/08/06 22:13:35;;;;;;;2.90;2.70;;;15.60;99.90;;;16.48;89.32;97244.38;5228962;28;20216;-58
2021/08/06 22:16:08;;;;;;;2.80;2.50;;;15.70;99.90;;;16.53;88.25;97240.19;5224705;28;20201;-57
2021/08/06 22:18:41;;;;;;;4.05;2.70;;;15.60;99.90;;;16.53;88.43;97235.03;5226934;28;20260;-58
2021/08/06 22:21:14;;;;;;;3.58;2.38;;;15.70;99.90;;;16.49;87.49;97228.06;5223731;28;20197;-55
2021/08/06 22:23:49;;;;;;;2.70;2.50;;;15.60;99.90;;;16.40;87.70;97221.00;5226446;28;20223;-58
2021/08/06 22:26:22;;;;;;;3.53;2.70;;;15.60;99.90;;;16.31;87.89;97222.47;5229497;28;20290;-56
2021/08/06 22:28:55;;;;;;;3.35;2.70;;;15.50;99.90;;;16.28;88.08;97214.66;5228388;28;20221;-57
2021/08/06 22:31:28;;;;;;;2.70;2.50;;;15.40;99.90;;;16.26;88.64;97216.34;5223489;28;20208;-60
2021/08/06 22:34:01;;;;;;;3.67;2.72;;;15.40;99.90;;;16.28;89.08;97217.22;5215003;28;20542;-59
2021/08/06 22:36:34;;;;;;;3.58;2.88;;;15.40;99.90;;;16.28;89.22;97212.06;5228579;28;20589;-55
2021/08/06 22:39:09;;;;;;;3.55;2.60;;;15.50;99.90;;;16.27;89.40;97216.38;5225587;28;20754;-59
2021/08/06 22:41:42;;;;;;;3.05;2.75;;;15.50;99.90;;;16.29;88.34;97231.91;5211305;28;20227;-58
2021/08/06 22:44:15;;;;;;;3.30;2.78;;;15.40;99.90;;;16.27;88.23;97233.56;5227035;28;20247;-59
2021/08/06 22:46:48;;;;;;;3.03;2.80;;;15.40;99.90;;;16.27;88.50;97220.66;5224268;28;20204;-58
2021/08/06 22:49:21;;;;;;;3.92;2.60;;;15.40;99.90;;;16.20;88.81;97217.94;5223308;28;20231;-57
2021/08/06 22:51:54;;;;;;;3.60;2.72;;;15.40;99.90;;;16.15;89.11;97224.69;5227097;28;20636;-56
2021/08/06 22:54:29;;;;;;;2.70;2.50;;;15.30;99.90;;;16.16;89.48;97228.13;5225853;28;20560;-58
2021/08/06 22:57:02;;;;;;;2.67;2.50;;;15.30;99.90;;;16.14;89.36;97225.53;5227694;28;20596;-56
2021/08/06 22:59:35;;;;;;;2.95;2.67;;;15.40;99.90;;;16.08;89.16;97227.94;5227000;28;20217;-58
2021/08/06 23:02:13;;;;;;;3.30;3.10;;;15.30;99.90;;;16.07;90.61;97227.91;5221752;28;20197;-58
2021/08/06 23:04:48;;;;;;;3.22;2.95;;;15.30;99.90;;;16.02;90.13;97229.47;5228027;28;20312;-57
2021/08/06 23:07:21;;;;;;;3.50;3.20;;;15.30;99.90;;;15.97;90.27;97226.81;5225857;28;20215;-56
2021/08/06 23:09:56;;;;;;;3.17;2.92;;;15.20;99.90;;;16.09;90.02;97231.41;5226437;28;20243;-58
2021/08/06 23:12:29;;;;;;;3.22;3.00;;;15.30;99.90;;;16.09;89.20;97233.97;5225346;28;20205;-56
2021/08/06 23:15:03;;;;;;;3.58;3.28;;;15.20;99.90;;;16.03;88.93;97236.41;5225382;28;20209;-59
2021/08/06 23:17:37;;;;;;;3.42;3.13;;;15.20;99.90;;;16.02;89.46;97245.81;5217089;28;20331;-58
2021/08/06 23:20:12;;;;;;;4.55;2.78;;;15.20;99.90;;;15.99;89.36;97240.59;5226788;28;20211;-59
2021/08/06 23:22:46;;;;;;;4.20;3.20;;;15.20;99.90;;;15.97;89.72;97244.84;5227316;28;20227;-57
2021/08/06 23:25:20;;;;;;;3.45;3.15;;;15.20;99.90;;;15.98;89.73;97231.13;5224749;28;20233;-58
2021/08/06 23:27:54;;;;;;;3.65;3.33;;;15.20;99.90;;;15.95;89.31;97239.63;5223816;28;20212;-58
2021/08/06 23:30:27;;;;;;;3.40;3.10;;;15.10;99.90;;;15.89;89.31;97243.78;5224233;28;20200;-56
2021/08/06 23:33:00;;;;;;;3.83;3.28;;;15.00;99.90;;;15.89;89.77;97242.06;5224915;28;20665;-57
2021/08/06 23:35:33;;;;;;;3.22;3.03;;;15.10;99.90;;;15.94;90.13;97242.19;5224604;28;20203;-60
2021/08/06 23:38:06;;;;;;;4.85;3.10;;;15.10;99.90;;;15.95;90.49;97238.78;5226919;28;20606;-58
2021/08/06 23:40:40;;;;;;;3.35;3.05;;;15.20;99.90;;;16.01;90.46;97238.06;5226240;28;20696;-55
2021/08/06 23:43:13;;;;;;;4.07;3.10;;;15.20;99.90;;;15.96;90.85;97230.19;5226774;28;20204;-58
2021/08/06 23:45:46;;;;;;;3.25;2.95;;;15.20;99.90;;;15.91;90.06;97219.78;5224096;28;20212;-58
2021/08/06 23:48:19;;;;;;;3.45;3.15;;;15.10;99.90;;;15.82;90.19;97213.50;5224105;28;20231;-57
2021/08/06 23:50:52;;;;;;;5.13;3.17;;;15.00;99.90;;;15.83;90.00;97207.53;5224546;28;20197;-57
2021/08/06 23:53:25;;;;;;;3.92;3.55;;;15.10;99.90;;;15.77;90.54;97211.69;5226261;28;20193;-59
2021/08/06 23:56:00;;;;;;;3.88;3.58;;;15.00;99.90;;;15.83;90.69;97202.38;5227487;28;20296;-58
2021/08/06 23:58:33;;;;;;;4.15;3.70;;;15.10;99.90;;;15.88;90.38;97203.34;5226376;28;20428;-58
